Time,TemperatureF,DewpointF,PressureIn,WindDirection,WindDirectionDegrees,WindSpeedMPH,WindSpeedGustMPH,Humidity,HourlyPrecipIn,Conditions,Clouds,dailyrainin,SoftwareType,DateUTC
2013-02-14 00:02:00,8.8,-1.8,29.92,SE,135,2.0,3.0,61,0.00,,,0.00,meteohub,2013-02-14 07:02:00,
2013-02-14 00:07:00,9.1,-1.3,29.91,SE,135,2.0,4.0,62,0.00,,,0.00,meteohub,2013-02-14 07:07:00,
2013-02-14 00:12:00,9.5,-0.9,29.92,SE,135,2.0,4.0,62,0.00,,,0.00,meteohub,2013-02-14 07:12:00,
2013-02-14 00:17:00,9.5,-0.9,29.92,SE,135,2.0,4.0,62,0.00,,,0.00,meteohub,2013-02-14 07:17:00,
2013-02-14 00:22:00,9.7,-0.8,29.92,SE,135,3.0,4.0,62,0.00,,,0.00,meteohub,2013-02-14 07:22:00,
2013-02-14 00:27:00,9.9,-0.6,29.91,SE,135,2.0,3.0,62,0.00,,,0.00,meteohub,2013-02-14 07:27:00,
2013-02-14 00:32:00,9.9,-0.6,29.91,NW,315,0.0,4.0,62,0.00,,,0.00,meteohub,2013-02-14 07:32:00,
2013-02-14 00:37:00,10.0,-0.4,29.91,SE,135,2.0,4.0,62,0.00,,,0.00,meteohub,2013-02-14 07:37:00,
2013-02-14 00:42:00,10.4,1.2,29.91,NE,45,2.0,4.0,66,0.00,,,0.00,meteohub,2013-02-14 07:42:00,
2013-02-14 00:47:00,10.8,1.6,29.91,East,90,1.0,4.0,66,0.00,,,0.00,meteohub,2013-02-14 07:47:00,
2013-02-14 00:52:00,10.8,1.6,29.91,NW,315,2.0,4.0,66,0.00,,,0.00,meteohub,2013-02-14 07:52:00,
2013-02-14 00:57:00,10.9,1.8,29.91,East,90,2.0,4.0,66,0.00,,,0.00,meteohub,2013-02-14 07:57:00,
2013-02-14 01:02:00,10.9,1.8,29.90,SW,225,2.0,4.0,66,0.00,,,0.00,meteohub,2013-02-14 08:02:00,
2013-02-14 01:07:00,11.1,1.9,29.91,NE,45,1.0,4.0,66,0.00,,,0.00,meteohub,2013-02-14 08:07:00,
2013-02-14 01:12:00,11.3,2.1,29.91,SE,135,2.0,4.0,66,0.00,,,0.00,meteohub,2013-02-14 08:12:00,
2013-02-14 01:17:00,11.5,1.9,29.91,SE,135,4.0,4.0,65,0.00,,,0.00,meteohub,2013-02-14 08:17:00,
2013-02-14 01:22:00,11.5,1.9,29.90,SE,135,4.0,4.0,65,0.00,,,0.00,meteohub,2013-02-14 08:22:00,
2013-02-14 01:27:00,11.7,2.1,29.91,SE,135,4.0,4.0,65,0.00,,,0.00,meteohub,2013-02-14 08:27:00,
2013-02-14 01:32:00,11.5,1.8,29.91,SE,135,2.0,4.0,64,0.00,,,0.00,meteohub,2013-02-14 08:32:00,
2013-02-14 01:37:00,11.5,1.8,29.90,SE,135,2.0,4.0,64,0.00,,,0.00,meteohub,2013-02-14 08:37:00,
2013-02-14 01:42:00,11.3,1.6,29.90,East,90,2.0,4.0,64,0.00,,,0.00,meteohub,2013-02-14 08:42:00,
2013-02-14 01:47:00,10.9,0.9,29.90,SE,135,3.0,4.0,63,0.00,,,0.00,meteohub,2013-02-14 08:47:00,
2013-02-14 01:52:00,10.9,0.9,29.91,SW,225,2.0,8.0,63,0.00,,,0.00,meteohub,2013-02-14 08:52:00,
2013-02-14 01:57:00,10.8,0.7,29.90,SE,135,2.0,8.0,63,0.00,,,0.00,meteohub,2013-02-14 08:57:00,
2013-02-14 02:02:00,10.6,0.5,29.90,South,180,1.0,8.0,63,0.00,,,0.00,meteohub,2013-02-14 09:02:00,
2013-02-14 02:07:00,10.2,-1.3,29.91,East,90,2.0,4.0,59,0.00,,,0.00,meteohub,2013-02-14 09:07:00,
2013-02-14 02:12:00,9.9,-1.7,29.90,WNW,293,3.0,4.0,59,0.00,,,0.00,meteohub,2013-02-14 09:12:00,
2013-02-14 02:17:00,9.7,-1.8,29.91,SE,135,1.0,4.0,59,0.00,,,0.00,meteohub,2013-02-14 09:17:00,
2013-02-14 02:22:00,9.5,-2.0,29.90,SW,225,1.0,4.0,59,0.00,,,0.00,meteohub,2013-02-14 09:22:00,
2013-02-14 02:27:00,9.1,-2.2,29.90,SE,135,2.0,4.0,59,0.00,,,0.00,meteohub,2013-02-14 09:27:00,
2013-02-14 02:32:00,9.0,-2.4,29.90,NE,45,1.0,4.0,59,0.00,,,0.00,meteohub,2013-02-14 09:32:00,
2013-02-14 02:37:00,8.6,-2.7,29.90,SE,135,1.0,4.0,59,0.00,,,0.00,meteohub,2013-02-14 09:37:00,
2013-02-14 02:42:00,8.4,-2.6,29.90,SE,135,0.0,2.0,60,0.00,,,0.00,meteohub,2013-02-14 09:42:00,
2013-02-14 02:47:00,8.1,-2.9,29.90,SE,135,2.0,2.0,60,0.00,,,0.00,meteohub,2013-02-14 09:47:00,
2013-02-14 02:52:00,7.9,-3.1,29.90,SE,135,1.0,2.0,60,0.00,,,0.00,meteohub,2013-02-14 09:52:00,
2013-02-14 02:57:00,7.9,-3.1,29.90,SE,135,2.0,2.0,60,0.00,,,0.00,meteohub,2013-02-14 09:57:00,
2013-02-14 03:02:00,7.7,-3.3,29.90,North,0,2.0,4.0,60,0.00,,,0.00,meteohub,2013-02-14 10:02:00,
2013-02-14 03:07:00,7.7,-3.3,29.89,North,0,2.0,6.0,60,0.00,,,0.00,meteohub,2013-02-14 10:07:00,
2013-02-14 03:12:00,7.5,-3.5,29.88,SE,135,0.0,6.0,60,0.00,,,0.00,meteohub,2013-02-14 10:12:00,
2013-02-14 03:17:00,7.3,-3.6,29.88,SE,135,2.0,2.0,60,0.00,,,0.00,meteohub,2013-02-14 10:17:00,
2013-02-14 03:22:00,7.2,-3.8,29.89,West,270,1.0,2.0,60,0.00,,,0.00,meteohub,2013-02-14 10:22:00,
2013-02-14 03:27:00,7.2,-3.8,29.88,SE,135,2.0,2.0,60,0.00,,,0.00,meteohub,2013-02-14 10:27:00,
2013-02-14 03:32:00,7.2,-3.8,29.88,SE,135,2.0,2.0,60,0.00,,,0.00,meteohub,2013-02-14 10:32:00,
2013-02-14 03:37:00,7.0,-4.0,29.88,SE,135,1.0,2.0,60,0.00,,,0.00,meteohub,2013-02-14 10:37:00,
2013-02-14 03:42:00,7.0,-3.6,29.88,SE,135,1.0,2.0,61,0.00,,,0.00,meteohub,2013-02-14 10:42:00,
2013-02-14 03:47:00,7.0,-3.6,29.88,SE,135,1.0,2.0,61,0.00,,,0.00,meteohub,2013-02-14 10:47:00,
2013-02-14 03:52:00,7.0,-3.6,29.88,East,90,1.0,2.0,61,0.00,,,0.00,meteohub,2013-02-14 10:52:00,
2013-02-14 03:57:00,7.0,-3.6,29.88,NW,315,1.0,2.0,61,0.00,,,0.00,meteohub,2013-02-14 10:57:00,
2013-02-14 04:02:00,7.2,-3.5,29.88,SW,225,1.0,2.0,61,0.00,,,0.00,meteohub,2013-02-14 11:02:00,
2013-02-14 04:07:00,7.3,-3.3,29.88,SE,135,1.0,2.0,61,0.00,,,0.00,meteohub,2013-02-14 11:07:00,
2013-02-14 04:12:00,7.3,-3.3,29.88,NW,315,1.0,2.0,61,0.00,,,0.00,meteohub,2013-02-14 11:12:00,
2013-02-14 04:17:00,7.5,-2.7,29.88,SE,135,2.0,2.0,62,0.00,,,0.00,meteohub,2013-02-14 11:17:00,
2013-02-14 04:22:00,7.7,-2.6,29.88,SE,135,2.0,2.0,62,0.00,,,0.00,meteohub,2013-02-14 11:22:00,
2013-02-14 04:27:00,7.9,-2.4,29.88,West,270,1.0,2.0,62,0.00,,,0.00,meteohub,2013-02-14 11:27:00,
2013-02-14 04:32:00,8.1,-2.2,29.88,SE,135,2.0,2.0,62,0.00,,,0.00,meteohub,2013-02-14 11:32:00,
2013-02-14 04:37:00,8.2,-2.0,29.88,NW,315,1.0,2.0,62,0.00,,,0.00,meteohub,2013-02-14 11:37:00,
2013-02-14 04:42:00,8.2,-1.8,29.88,West,270,2.0,2.0,63,0.00,,,0.00,meteohub,2013-02-14 11:42:00,
2013-02-14 04:47:00,8.4,-1.7,29.88,SE,135,0.0,3.0,63,0.00,,,0.00,meteohub,2013-02-14 11:47:00,
2013-02-14 04:52:00,8.6,-1.7,29.88,South,180,0.0,3.0,62,0.00,,,0.00,meteohub,2013-02-14 11:52:00,
2013-02-14 04:57:00,8.8,-1.7,29.88,NE,45,1.0,3.0,62,0.00,,,0.00,meteohub,2013-02-14 11:57:00,
2013-02-14 05:02:00,9.0,-1.5,29.88,SE,135,1.0,2.0,62,0.00,,,0.00,meteohub,2013-02-14 12:02:00,
2013-02-14 05:07:00,9.0,-1.5,29.88,SE,135,1.0,2.0,62,0.00,,,0.00,meteohub,2013-02-14 12:07:00,
2013-02-14 05:12:00,9.3,-0.8,29.88,NW,315,0.0,2.0,63,0.00,,,0.00,meteohub,2013-02-14 12:12:00,
2013-02-14 05:17:00,9.5,-0.6,29.88,SE,135,1.0,2.0,63,0.00,,,0.00,meteohub,2013-02-14 12:17:00,
2013-02-14 05:22:00,9.5,-0.6,29.88,South,180,2.0,2.0,63,0.00,,,0.00,meteohub,2013-02-14 12:22:00,
2013-02-14 05:27:00,9.7,-0.4,29.88,SW,225,2.0,3.0,63,0.00,,,0.00,meteohub,2013-02-14 12:27:00,
2013-02-14 05:32:00,10.0,0.0,29.88,East,90,0.0,3.0,63,0.00,,,0.00,meteohub,2013-02-14 12:32:00,
2013-02-14 05:37:00,10.2,0.5,29.88,West,270,1.0,3.0,64,0.00,,,0.00,meteohub,2013-02-14 12:37:00,
2013-02-14 05:42:00,10.6,2.1,29.88,West,270,1.0,4.0,68,0.00,,,0.00,meteohub,2013-02-14 12:42:00,
2013-02-14 05:47:00,10.8,2.7,29.88,West,270,1.0,4.0,69,0.00,,,0.00,meteohub,2013-02-14 12:47:00,
2013-02-14 05:52:00,10.9,2.8,29.88,West,270,2.0,4.0,69,0.00,,,0.00,meteohub,2013-02-14 12:52:00,
2013-02-14 05:57:00,11.1,3.0,29.88,West,270,1.0,4.0,69,0.00,,,0.00,meteohub,2013-02-14 12:57:00,
2013-02-14 06:02:00,11.3,3.2,29.88,NW,315,2.0,3.0,69,0.00,,,0.00,meteohub,2013-02-14 13:02:00,
2013-02-14 06:07:00,11.5,3.6,29.88,NW,315,0.0,3.0,70,0.00,,,0.00,meteohub,2013-02-14 13:07:00,
2013-02-14 06:12:00,11.5,3.6,29.88,West,270,1.0,3.0,70,0.00,,,0.00,meteohub,2013-02-14 13:12:00,
2013-02-14 06:17:00,11.7,3.7,29.88,NW,315,0.0,3.0,70,0.00,,,0.00,meteohub,2013-02-14 13:17:00,
2013-02-14 06:22:00,11.7,3.7,29.88,NW,315,0.0,3.0,70,0.00,,,0.00,meteohub,2013-02-14 13:22:00,
2013-02-14 06:27:00,11.7,3.7,29.88,West,270,0.0,2.0,70,0.00,,,0.00,meteohub,2013-02-14 13:27:00,
2013-02-14 06:32:00,11.7,3.7,29.88,West,270,0.0,0.0,70,0.00,,,0.00,meteohub,2013-02-14 13:32:00,
2013-02-14 06:37:00,11.7,3.7,29.88,West,270,0.0,0.0,70,0.00,,,0.00,meteohub,2013-02-14 13:37:00,
2013-02-14 06:42:00,11.7,3.4,29.88,SW,225,0.0,0.0,69,0.00,,,0.00,meteohub,2013-02-14 13:42:00,
2013-02-14 06:47:00,11.7,3.4,29.88,SE,135,0.0,0.0,69,0.00,,,0.00,meteohub,2013-02-14 13:47:00,
2013-02-14 06:52:00,11.8,3.6,29.89,SE,135,1.0,5.0,69,0.00,,,0.00,meteohub,2013-02-14 13:52:00,
2013-02-14 06:57:00,11.7,3.4,29.89,NW,315,2.0,5.0,69,0.00,,,0.00,meteohub,2013-02-14 13:57:00,
2013-02-14 07:02:00,11.8,3.6,29.89,West,270,4.0,5.0,69,0.00,,,0.00,meteohub,2013-02-14 14:02:00,
2013-02-14 07:07:00,11.8,3.6,29.89,West,270,4.0,5.0,69,0.00,,,0.00,meteohub,2013-02-14 14:07:00,
2013-02-14 07:12:00,11.8,3.6,29.89,WNW,293,3.0,4.0,69,0.00,,,0.00,meteohub,2013-02-14 14:12:00,
2013-02-14 07:17:00,11.8,3.6,29.89,WSW,248,3.0,8.0,69,0.00,,,0.00,meteohub,2013-02-14 14:17:00,
2013-02-14 07:22:00,12.0,3.7,29.90,NW,315,2.0,8.0,69,0.00,,,0.00,meteohub,2013-02-14 14:22:00,
2013-02-14 07:27:00,12.0,3.7,29.90,West,270,3.0,8.0,69,0.00,,,0.00,meteohub,2013-02-14 14:27:00,
2013-02-14 07:32:00,12.2,3.7,29.90,NW,315,4.0,6.0,68,0.00,,,0.00,meteohub,2013-02-14 14:32:00,
2013-02-14 07:37:00,12.4,3.9,29.90,West,270,5.0,6.0,68,0.00,,,0.00,meteohub,2013-02-14 14:37:00,
2013-02-14 07:42:00,12.6,4.1,29.90,West,270,3.0,6.0,68,0.00,,,0.00,meteohub,2013-02-14 14:42:00,
2013-02-14 07:47:00,12.7,4.1,29.90,North,0,7.0,7.0,68,0.00,,,0.00,meteohub,2013-02-14 14:47:00,
2013-02-14 07:52:00,12.9,4.3,29.90,West,270,3.0,7.0,68,0.00,,,0.00,meteohub,2013-02-14 14:52:00,
2013-02-14 07:57:00,13.1,4.5,29.90,North,0,7.0,7.0,68,0.00,,,0.00,meteohub,2013-02-14 14:57:00,
2013-02-14 08:02:00,13.1,4.5,29.91,SW,225,1.0,7.0,68,0.00,,,0.00,meteohub,2013-02-14 15:02:00,
2013-02-14 08:07:00,13.1,4.5,29.91,West,270,5.0,7.0,68,0.00,,,0.00,meteohub,2013-02-14 15:07:00,
2013-02-14 08:12:00,13.3,4.6,29.91,WNW,293,2.0,7.0,68,0.00,,,0.00,meteohub,2013-02-14 15:12:00,
2013-02-14 08:17:00,13.5,4.8,29.91,NW,315,7.0,7.0,68,0.00,,,0.00,meteohub,2013-02-14 15:17:00,
2013-02-14 08:22:00,13.6,5.0,29.91,West,270,9.0,9.0,68,0.00,,,0.00,meteohub,2013-02-14 15:22:00,
2013-02-14 08:27:00,14.0,5.0,29.91,West,270,2.0,9.0,67,0.00,,,0.00,meteohub,2013-02-14 15:27:00,
2013-02-14 08:32:00,14.2,5.2,29.91,SW,225,4.0,9.0,67,0.00,,,0.00,meteohub,2013-02-14 15:32:00,
2013-02-14 08:37:00,14.4,5.4,29.90,NW,315,8.0,11.0,67,0.00,,,0.00,meteohub,2013-02-14 15:37:00,
2013-02-14 08:42:00,14.7,5.7,29.91,SE,135,8.0,11.0,67,0.00,,,0.00,meteohub,2013-02-14 15:42:00,
2013-02-14 08:47:00,14.9,5.9,29.91,NW,315,10.0,11.0,67,0.00,,,0.00,meteohub,2013-02-14 15:47:00,
2013-02-14 08:52:00,14.9,5.5,29.91,SE,135,4.0,11.0,66,0.00,,,0.00,meteohub,2013-02-14 15:52:00,
2013-02-14 08:57:00,14.9,5.5,29.91,West,270,6.0,12.0,66,0.00,,,0.00,meteohub,2013-02-14 15:57:00,
2013-02-14 09:02:00,15.1,5.7,29.91,North,0,2.0,12.0,66,0.00,,,0.00,meteohub,2013-02-14 16:02:00,
2013-02-14 09:07:00,15.1,5.7,29.91,North,0,2.0,6.0,66,0.00,,,0.00,meteohub,2013-02-14 16:07:00,
2013-02-14 09:12:00,15.8,6.1,29.91,West,270,4.0,6.0,65,0.00,,,0.00,meteohub,2013-02-14 16:12:00,
2013-02-14 09:17:00,15.8,6.1,29.91,West,270,5.0,9.0,65,0.00,,,0.00,meteohub,2013-02-14 16:17:00,
2013-02-14 09:22:00,15.8,6.1,29.91,West,270,6.0,9.0,65,0.00,,,0.00,meteohub,2013-02-14 16:22:00,
2013-02-14 09:27:00,15.6,5.9,29.91,West,270,6.0,8.0,65,0.00,,,0.00,meteohub,2013-02-14 16:27:00,
2013-02-14 09:32:00,15.3,5.5,29.90,NE,45,7.0,11.0,65,0.00,,,0.00,meteohub,2013-02-14 16:32:00,
2013-02-14 09:37:00,15.3,5.4,29.91,West,270,2.0,11.0,64,0.00,,,0.00,meteohub,2013-02-14 16:37:00,
2013-02-14 09:42:00,15.3,5.4,29.90,NW,315,4.0,11.0,64,0.00,,,0.00,meteohub,2013-02-14 16:42:00,
2013-02-14 09:47:00,15.3,5.4,29.90,NW,315,2.0,12.0,64,0.00,,,0.00,meteohub,2013-02-14 16:47:00,
2013-02-14 09:52:00,15.4,5.4,29.90,NW,315,8.0,12.0,64,0.00,,,0.00,meteohub,2013-02-14 16:52:00,
2013-02-14 09:57:00,15.4,5.2,29.90,NW,315,3.0,12.0,63,0.00,,,0.00,meteohub,2013-02-14 16:57:00,
2013-02-14 10:02:00,15.4,5.2,29.91,South,180,8.0,11.0,63,0.00,,,0.00,meteohub,2013-02-14 17:02:00,
2013-02-14 10:07:00,15.4,5.2,29.90,North,0,4.0,13.0,63,0.00,,,0.00,meteohub,2013-02-14 17:07:00,
2013-02-14 10:12:00,15.8,4.8,29.91,NNE,23,5.0,13.0,61,0.00,,,0.00,meteohub,2013-02-14 17:12:00,
2013-02-14 10:17:00,16.2,5.0,29.91,SW,225,6.0,13.0,61,0.00,,,0.00,meteohub,2013-02-14 17:17:00,
2013-02-14 10:22:00,16.5,5.0,29.91,SW,225,7.0,9.0,60,0.00,,,0.00,meteohub,2013-02-14 17:22:00,
2013-02-14 10:27:00,16.9,5.0,29.91,SSE,158,3.0,9.0,59,0.00,,,0.00,meteohub,2013-02-14 17:27:00,
2013-02-14 10:32:00,17.4,5.5,29.91,West,270,4.0,9.0,59,0.00,,,0.00,meteohub,2013-02-14 17:32:00,
2013-02-14 10:37:00,18.0,5.7,29.91,SW,225,5.0,8.0,58,0.00,,,0.00,meteohub,2013-02-14 17:37:00,
2013-02-14 10:42:00,18.1,5.5,29.91,South,180,5.0,8.0,57,0.00,,,0.00,meteohub,2013-02-14 17:42:00,
2013-02-14 10:47:00,18.1,5.0,29.91,NW,315,2.0,10.0,56,0.00,,,0.00,meteohub,2013-02-14 17:47:00,
2013-02-14 10:52:00,18.3,4.8,29.92,NW,315,8.0,10.0,55,0.00,,,0.00,meteohub,2013-02-14 17:52:00,
2013-02-14 10:57:00,18.5,4.6,29.92,West,270,6.0,10.0,54,0.00,,,0.00,meteohub,2013-02-14 17:57:00,
2013-02-14 11:02:00,18.7,5.2,29.92,SW,225,4.0,8.0,55,0.00,,,0.00,meteohub,2013-02-14 18:02:00,
2013-02-14 11:07:00,18.7,5.2,29.92,SW,225,4.0,8.0,55,0.00,,,0.00,meteohub,2013-02-14 18:07:00,
2013-02-14 11:12:00,19.4,8.1,29.92,West,270,5.0,10.0,61,0.00,,,0.00,meteohub,2013-02-14 18:12:00,
2013-02-14 11:17:00,19.2,6.8,29.93,NW,315,8.0,10.0,58,0.00,,,0.00,meteohub,2013-02-14 18:17:00,
2013-02-14 11:22:00,19.2,6.8,29.92,North,0,4.0,10.0,58,0.00,,,0.00,meteohub,2013-02-14 18:22:00,
2013-02-14 11:27:00,19.2,6.8,29.93,NW,315,8.0,9.0,58,0.00,,,0.00,meteohub,2013-02-14 18:27:00,
2013-02-14 11:32:00,18.7,6.4,29.93,South,180,4.0,8.0,58,0.00,,,0.00,meteohub,2013-02-14 18:32:00,
2013-02-14 11:37:00,18.5,6.3,29.93,SE,135,5.0,11.0,58,0.00,,,0.00,meteohub,2013-02-14 18:37:00,
2013-02-14 11:42:00,18.7,5.9,29.93,West,270,4.0,11.0,57,0.00,,,0.00,meteohub,2013-02-14 18:42:00,
2013-02-14 11:47:00,19.0,6.3,29.94,South,180,11.0,11.0,57,0.00,,,0.00,meteohub,2013-02-14 18:47:00,
2013-02-14 11:52:00,19.4,7.7,29.93,SE,135,4.0,11.0,60,0.00,,,0.00,meteohub,2013-02-14 18:52:00,
2013-02-14 11:57:00,19.9,7.9,29.93,West,270,5.0,11.0,59,0.00,,,0.00,meteohub,2013-02-14 18:57:00,
2013-02-14 12:02:00,20.3,8.6,29.93,South,180,7.0,14.0,60,0.00,,,0.00,meteohub,2013-02-14 19:02:00,
2013-02-14 12:07:00,20.7,9.0,29.93,West,270,8.0,15.0,60,0.00,,,0.00,meteohub,2013-02-14 19:07:00,
2013-02-14 12:12:00,20.7,9.0,29.92,West,270,8.0,15.0,60,0.00,,,0.00,meteohub,2013-02-14 19:12:00,
2013-02-14 12:17:00,20.1,8.4,29.93,East,90,5.0,15.0,60,0.00,,,0.00,meteohub,2013-02-14 19:17:00,
2013-02-14 12:22:00,19.9,8.2,29.93,West,270,8.0,17.0,60,0.00,,,0.00,meteohub,2013-02-14 19:22:00,
2013-02-14 12:27:00,19.8,8.1,29.92,West,270,3.0,17.0,60,0.00,,,0.00,meteohub,2013-02-14 19:27:00,
2013-02-14 12:32:00,19.4,7.7,29.92,NW,315,8.0,17.0,60,0.00,,,0.00,meteohub,2013-02-14 19:32:00,
2013-02-14 12:37:00,19.4,7.7,29.92,East,90,4.0,16.0,60,0.00,,,0.00,meteohub,2013-02-14 19:37:00,
2013-02-14 12:42:00,19.0,5.9,29.92,WNW,293,8.0,16.0,56,0.00,,,0.00,meteohub,2013-02-14 19:42:00,
2013-02-14 12:47:00,19.0,5.9,29.92,SE,135,2.0,16.0,56,0.00,,,0.00,meteohub,2013-02-14 19:47:00,
2013-02-14 12:52:00,19.8,8.4,29.92,WNW,293,8.0,11.0,61,0.00,,,0.00,meteohub,2013-02-14 19:52:00,
2013-02-14 12:57:00,20.8,9.5,29.92,North,0,7.0,11.0,61,0.00,,,0.00,meteohub,2013-02-14 19:57:00,
2013-02-14 13:02:00,21.4,9.7,29.92,North,0,4.0,10.0,60,0.00,,,0.00,meteohub,2013-02-14 20:02:00,
2013-02-14 13:07:00,21.4,9.7,29.92,North,0,4.0,10.0,60,0.00,,,0.00,meteohub,2013-02-14 20:07:00,
2013-02-14 13:12:00,26.1,11.7,29.92,SW,225,2.0,9.0,54,0.00,,,0.00,meteohub,2013-02-14 20:12:00,
2013-02-14 13:17:00,26.2,10.2,29.92,SW,225,4.0,5.0,50,0.00,,,0.00,meteohub,2013-02-14 20:17:00,
2013-02-14 13:22:00,25.9,8.4,29.92,NW,315,4.0,5.0,47,0.00,,,0.00,meteohub,2013-02-14 20:22:00,
2013-02-14 13:27:00,26.4,8.4,29.91,West,270,5.0,8.0,46,0.00,,,0.00,meteohub,2013-02-14 20:27:00,
2013-02-14 13:32:00,25.2,4.8,29.91,SW,225,3.0,11.0,41,0.00,,,0.00,meteohub,2013-02-14 20:32:00,
2013-02-14 13:37:00,25.9,6.4,29.91,WSW,248,4.0,11.0,43,0.00,,,0.00,meteohub,2013-02-14 20:37:00,
2013-02-14 13:42:00,26.6,6.6,29.92,West,270,4.0,11.0,42,0.00,,,0.00,meteohub,2013-02-14 20:42:00,
2013-02-14 13:47:00,26.6,6.1,29.91,West,270,6.0,8.0,41,0.00,,,0.00,meteohub,2013-02-14 20:47:00,
2013-02-14 13:53:00,26.1,6.6,29.91,South,180,11.0,11.0,43,0.00,,,0.00,meteohub,2013-02-14 20:53:00,
2013-02-14 13:58:00,25.9,7.9,29.91,SE,135,4.0,11.0,46,0.00,,,0.00,meteohub,2013-02-14 20:58:00,
2013-02-14 14:03:00,25.9,9.3,29.91,NW,315,6.0,15.0,49,0.00,,,0.00,meteohub,2013-02-14 21:03:00,
2013-02-14 14:08:00,25.7,9.1,29.92,North,0,3.0,15.0,49,0.00,,,0.00,meteohub,2013-02-14 21:08:00,
2013-02-14 14:13:00,25.5,9.5,29.92,West,270,6.0,11.0,50,0.00,,,0.00,meteohub,2013-02-14 21:13:00,
2013-02-14 14:18:00,24.6,9.1,29.92,East,90,5.0,13.0,51,0.00,,,0.00,meteohub,2013-02-14 21:18:00,
2013-02-14 14:23:00,23.7,8.2,29.92,NW,315,2.0,13.0,51,0.00,,,0.00,meteohub,2013-02-14 21:23:00,
2013-02-14 14:28:00,23.2,8.2,29.93,NW,315,5.0,13.0,52,0.00,,,0.00,meteohub,2013-02-14 21:28:00,
2013-02-14 14:33:00,22.8,8.2,29.93,SE,135,2.0,10.0,53,0.00,,,0.00,meteohub,2013-02-14 21:33:00,
2013-02-14 14:38:00,22.3,8.2,29.93,NW,315,3.0,7.0,54,0.00,,,0.00,meteohub,2013-02-14 21:38:00,
2013-02-14 14:43:00,21.7,7.7,29.93,NW,315,4.0,10.0,54,0.00,,,0.00,meteohub,2013-02-14 21:43:00,
2013-02-14 14:48:00,20.8,7.2,29.93,West,270,7.0,10.0,55,0.00,,,0.00,meteohub,2013-02-14 21:48:00,
2013-02-14 14:53:00,19.9,6.8,29.93,NW,315,8.0,10.0,56,0.00,,,0.00,meteohub,2013-02-14 21:53:00,
2013-02-14 14:58:00,19.4,6.3,29.93,WNW,293,11.0,11.0,56,0.00,,,0.00,meteohub,2013-02-14 21:58:00,
2013-02-14 15:03:00,19.4,6.6,29.93,NW,315,5.0,10.0,57,0.00,,,0.00,meteohub,2013-02-14 22:03:00,
2013-02-14 15:08:00,18.9,5.0,29.93,NW,315,10.0,11.0,54,0.00,,,0.00,meteohub,2013-02-14 22:08:00,
2013-02-14 15:13:00,18.5,5.0,29.94,NW,315,8.0,11.0,55,0.00,,,0.00,meteohub,2013-02-14 22:13:00,
2013-02-14 15:18:00,18.7,5.2,29.94,NW,315,2.0,10.0,55,0.00,,,0.00,meteohub,2013-02-14 22:18:00,
2013-02-14 15:24:00,18.5,5.0,29.94,South,180,8.0,10.0,55,0.00,,,0.00,meteohub,2013-02-14 22:24:00,
2013-02-14 15:29:00,18.3,4.8,29.94,NE,45,3.0,8.0,55,0.00,,,0.00,meteohub,2013-02-14 22:29:00,
2013-02-14 15:34:00,18.7,5.5,29.94,WNW,293,4.0,8.0,56,0.00,,,0.00,meteohub,2013-02-14 22:34:00,
2013-02-14 15:39:00,18.9,5.7,29.94,NW,315,4.0,8.0,56,0.00,,,0.00,meteohub,2013-02-14 22:39:00,
2013-02-14 15:44:00,18.1,5.0,29.94,NW,315,2.0,7.0,56,0.00,,,0.00,meteohub,2013-02-14 22:44:00,
2013-02-14 15:49:00,17.8,4.3,29.94,WNW,293,5.0,7.0,55,0.00,,,0.00,meteohub,2013-02-14 22:49:00,
2013-02-14 15:54:00,17.4,4.5,29.94,NW,315,6.0,7.0,56,0.00,,,0.00,meteohub,2013-02-14 22:54:00,
2013-02-14 15:59:00,17.1,3.7,29.95,NW,315,2.0,5.0,55,0.00,,,0.00,meteohub,2013-02-14 22:59:00,
2013-02-14 16:04:00,17.1,4.1,29.95,South,180,2.0,8.0,56,0.00,,,0.00,meteohub,2013-02-14 23:04:00,
2013-02-14 16:09:00,17.1,4.5,29.95,SW,225,2.0,8.0,57,0.00,,,0.00,meteohub,2013-02-14 23:09:00,
2013-02-14 16:14:00,17.1,4.5,29.95,WNW,293,4.0,8.0,57,0.00,,,0.00,meteohub,2013-02-14 23:14:00,
2013-02-14 16:19:00,16.9,4.3,29.95,West,270,3.0,7.0,57,0.00,,,0.00,meteohub,2013-02-14 23:19:00,
2013-02-14 16:24:00,16.3,3.4,29.95,West,270,8.0,8.0,56,0.00,,,0.00,meteohub,2013-02-14 23:24:00,
2013-02-14 16:29:00,16.0,3.0,29.95,NW,315,2.0,7.0,56,0.00,,,0.00,meteohub,2013-02-14 23:29:00,
2013-02-14 16:34:00,16.0,3.4,29.95,NNE,23,4.0,8.0,57,0.00,,,0.00,meteohub,2013-02-14 23:34:00,
2013-02-14 16:39:00,16.0,3.4,29.95,NW,315,4.0,8.0,57,0.00,,,0.00,meteohub,2013-02-14 23:39:00,
2013-02-14 16:44:00,16.0,3.7,29.95,NW,315,4.0,5.0,58,0.00,,,0.00,meteohub,2013-02-14 23:44:00,
2013-02-14 16:50:00,16.0,3.7,29.95,SE,135,4.0,5.0,58,0.00,,,0.00,meteohub,2013-02-14 23:50:00,
2013-02-14 16:55:00,15.6,4.3,29.95,North,0,4.0,5.0,60,0.00,,,0.00,meteohub,2013-02-14 23:55:00,
2013-02-14 17:00:00,15.3,3.9,29.96,NW,315,7.0,7.0,60,0.00,,,0.00,meteohub,2013-02-15 00:00:00,
2013-02-14 17:05:00,15.3,3.9,29.95,NW,315,7.0,7.0,60,0.00,,,0.00,meteohub,2013-02-15 00:05:00,
2013-02-14 17:10:00,14.7,3.4,29.95,SW,225,2.0,7.0,60,0.00,,,0.00,meteohub,2013-02-15 00:10:00,
2013-02-14 17:15:00,14.5,3.2,29.95,SW,225,3.0,7.0,60,0.00,,,0.00,meteohub,2013-02-15 00:15:00,
2013-02-14 17:20:00,14.4,3.0,29.96,West,270,2.0,7.0,60,0.00,,,0.00,meteohub,2013-02-15 00:20:00,
2013-02-14 17:25:00,14.2,2.8,29.96,South,180,2.0,5.0,60,0.00,,,0.00,meteohub,2013-02-15 00:25:00,
2013-02-14 17:30:00,14.0,2.7,29.96,West,270,4.0,4.0,60,0.00,,,0.00,meteohub,2013-02-15 00:30:00,
2013-02-14 17:35:00,13.8,2.8,29.96,NW,315,4.0,7.0,61,0.00,,,0.00,meteohub,2013-02-15 00:35:00,
2013-02-14 17:40:00,13.6,2.7,29.96,SW,225,4.0,7.0,61,0.00,,,0.00,meteohub,2013-02-15 00:40:00,
2013-02-14 17:45:00,13.3,2.3,29.96,East,90,2.0,5.0,61,0.00,,,0.00,meteohub,2013-02-15 00:45:00,
2013-02-14 17:50:00,12.9,1.9,29.96,NW,315,4.0,5.0,61,0.00,,,0.00,meteohub,2013-02-15 00:50:00,
2013-02-14 17:55:00,12.4,1.6,29.96,SE,135,1.0,5.0,61,0.00,,,0.00,meteohub,2013-02-15 00:55:00,
2013-02-14 18:00:00,12.0,1.6,29.96,NE,45,4.0,4.0,62,0.00,,,0.00,meteohub,2013-02-15 01:00:00,
2013-02-14 18:05:00,11.7,1.2,29.96,West,270,3.0,8.0,62,0.00,,,0.00,meteohub,2013-02-15 01:05:00,
2013-02-14 18:10:00,11.7,1.6,29.96,SW,225,2.0,8.0,63,0.00,,,0.00,meteohub,2013-02-15 01:10:00,
2013-02-14 18:15:00,11.5,1.4,29.96,West,270,3.0,4.0,63,0.00,,,0.00,meteohub,2013-02-15 01:15:00,
2013-02-14 18:21:00,11.7,1.6,29.96,West,270,3.0,5.0,63,0.00,,,0.00,meteohub,2013-02-15 01:21:00,
2013-02-14 18:26:00,11.5,1.4,29.96,SW,225,2.0,5.0,63,0.00,,,0.00,meteohub,2013-02-15 01:26:00,
2013-02-14 18:31:00,11.7,1.6,29.96,SW,225,1.0,4.0,63,0.00,,,0.00,meteohub,2013-02-15 01:31:00,
2013-02-14 18:36:00,11.7,1.6,29.96,SE,135,1.0,4.0,63,0.00,,,0.00,meteohub,2013-02-15 01:36:00,
2013-02-14 18:41:00,11.5,1.8,29.97,West,270,2.0,4.0,64,0.00,,,0.00,meteohub,2013-02-15 01:41:00,
2013-02-14 18:46:00,11.7,1.8,29.96,NW,315,1.0,4.0,64,0.00,,,0.00,meteohub,2013-02-15 01:46:00,
2013-02-14 18:51:00,11.7,1.8,29.97,NW,315,2.0,4.0,64,0.00,,,0.00,meteohub,2013-02-15 01:51:00,
2013-02-14 18:56:00,11.7,1.8,29.97,NW,315,1.0,2.0,64,0.00,,,0.00,meteohub,2013-02-15 01:56:00,
2013-02-14 19:01:00,11.7,1.8,29.97,NW,315,4.0,4.0,64,0.00,,,0.00,meteohub,2013-02-15 02:01:00,
2013-02-14 19:06:00,11.7,1.8,29.97,NW,315,4.0,4.0,64,0.00,,,0.00,meteohub,2013-02-15 02:06:00,
2013-02-14 19:11:00,11.5,1.8,29.97,NW,315,1.0,4.0,64,0.00,,,0.00,meteohub,2013-02-15 02:11:00,
2013-02-14 19:16:00,11.3,1.6,29.97,West,270,1.0,4.0,64,0.00,,,0.00,meteohub,2013-02-15 02:16:00,
2013-02-14 19:21:00,11.3,1.6,29.97,NW,315,2.0,4.0,64,0.00,,,0.00,meteohub,2013-02-15 02:21:00,
2013-02-14 19:26:00,11.1,1.4,29.96,West,270,0.0,2.0,64,0.00,,,0.00,meteohub,2013-02-15 02:26:00,
2013-02-14 19:31:00,11.1,1.4,29.96,South,180,0.0,2.0,64,0.00,,,0.00,meteohub,2013-02-15 02:31:00,
2013-02-14 19:36:00,10.9,1.2,29.97,NW,315,0.0,2.0,64,0.00,,,0.00,meteohub,2013-02-15 02:36:00,
2013-02-14 19:41:00,10.9,1.2,29.97,South,180,0.0,2.0,64,0.00,,,0.00,meteohub,2013-02-15 02:41:00,
2013-02-14 19:47:00,10.8,1.0,29.96,East,90,1.0,1.0,64,0.00,,,0.00,meteohub,2013-02-15 02:47:00,
2013-02-14 19:52:00,10.4,0.7,29.96,South,180,0.0,1.0,64,0.00,,,0.00,meteohub,2013-02-15 02:52:00,
2013-02-14 19:57:00,10.2,-0.9,29.96,SE,135,1.0,2.0,60,0.00,,,0.00,meteohub,2013-02-15 02:57:00,
2013-02-14 20:02:00,10.0,-1.5,29.96,NW,315,1.0,2.0,59,0.00,,,0.00,meteohub,2013-02-15 03:02:00,
2013-02-14 20:07:00,9.7,-1.8,29.96,SE,135,2.0,2.0,59,0.00,,,0.00,meteohub,2013-02-15 03:07:00,
2013-02-14 20:12:00,9.7,-1.8,29.96,SE,135,1.0,3.0,59,0.00,,,0.00,meteohub,2013-02-15 03:12:00,
2013-02-14 20:17:00,9.9,-1.7,29.96,SE,135,1.0,3.0,59,0.00,,,0.00,meteohub,2013-02-15 03:17:00,
2013-02-14 20:22:00,9.9,-1.7,29.96,South,180,1.0,3.0,59,0.00,,,0.00,meteohub,2013-02-15 03:22:00,
2013-02-14 20:27:00,9.9,-1.7,29.96,NW,315,2.0,2.0,59,0.00,,,0.00,meteohub,2013-02-15 03:27:00,
2013-02-14 20:32:00,9.7,-1.8,29.96,SE,135,2.0,2.0,59,0.00,,,0.00,meteohub,2013-02-15 03:32:00,
2013-02-14 20:37:00,9.7,-1.8,29.96,West,270,2.0,2.0,59,0.00,,,0.00,meteohub,2013-02-15 03:37:00,
2013-02-14 20:42:00,9.7,-1.8,29.96,West,270,0.0,2.0,59,0.00,,,0.00,meteohub,2013-02-15 03:42:00,
2013-02-14 20:47:00,9.7,-1.8,29.96,SE,135,1.0,2.0,59,0.00,,,0.00,meteohub,2013-02-15 03:47:00,
2013-02-14 20:52:00,9.3,-2.0,29.96,SE,135,1.0,2.0,59,0.00,,,0.00,meteohub,2013-02-15 03:52:00,
2013-02-14 20:57:00,9.1,-2.2,29.96,West,270,1.0,2.0,59,0.00,,,0.00,meteohub,2013-02-15 03:57:00,
2013-02-14 21:02:00,9.1,-2.2,29.96,West,270,1.0,2.0,59,0.00,,,0.00,meteohub,2013-02-15 04:02:00,
2013-02-14 21:07:00,9.1,-2.2,29.96,West,270,1.0,2.0,59,0.00,,,0.00,meteohub,2013-02-15 04:07:00,
2013-02-14 21:12:00,8.8,-2.6,29.96,SE,135,1.0,2.0,59,0.00,,,0.00,meteohub,2013-02-15 04:12:00,
2013-02-14 21:17:00,8.6,-2.7,29.96,SE,135,1.0,2.0,59,0.00,,,0.00,meteohub,2013-02-15 04:17:00,
2013-02-14 21:22:00,8.4,-2.6,29.96,East,90,1.0,2.0,60,0.00,,,0.00,meteohub,2013-02-15 04:22:00,
2013-02-14 21:27:00,8.2,-2.7,29.96,West,270,2.0,2.0,60,0.00,,,0.00,meteohub,2013-02-15 04:27:00,
2013-02-14 21:32:00,8.2,-2.7,29.96,SE,135,0.0,2.0,60,0.00,,,0.00,meteohub,2013-02-15 04:32:00,
2013-02-14 21:37:00,8.2,-2.7,29.95,SE,135,0.0,2.0,60,0.00,,,0.00,meteohub,2013-02-15 04:37:00,
2013-02-14 21:42:00,8.2,-2.7,29.95,SE,135,0.0,2.0,60,0.00,,,0.00,meteohub,2013-02-15 04:42:00,
2013-02-14 21:47:00,8.4,-2.2,29.96,NW,315,1.0,2.0,61,0.00,,,0.00,meteohub,2013-02-15 04:47:00,
2013-02-14 21:52:00,8.6,-2.4,29.96,NW,315,0.0,2.0,60,0.00,,,0.00,meteohub,2013-02-15 04:52:00,
2013-02-14 21:57:00,8.6,-2.4,29.96,SE,135,2.0,2.0,60,0.00,,,0.00,meteohub,2013-02-15 04:57:00,
2013-02-14 22:00:00,8.8,-2.2,29.96,NW,315,1.0,1.0,60,0.00,,,0.00,meteohub,2013-02-15 05:00:00,
2013-02-14 22:02:00,8.8,-2.2,29.96,SW,225,1.0,2.0,60,0.00,,,0.00,meteohub,2013-02-15 05:02:00,
2013-02-14 22:07:00,8.8,-2.2,29.95,SE,135,0.0,2.0,60,0.00,,,0.00,meteohub,2013-02-15 05:07:00,
2013-02-14 22:12:00,8.8,-2.2,29.95,NW,315,0.0,2.0,60,0.00,,,0.00,meteohub,2013-02-15 05:12:00,
2013-02-14 22:17:00,9.0,-2.0,29.95,SE,135,0.0,1.0,60,0.00,,,0.00,meteohub,2013-02-15 05:17:00,
2013-02-14 22:22:00,9.0,-2.0,29.95,SE,135,0.0,2.0,60,0.00,,,0.00,meteohub,2013-02-15 05:22:00,
2013-02-14 22:28:00,9.0,-2.0,29.95,SE,135,0.0,2.0,60,0.00,,,0.00,meteohub,2013-02-15 05:28:00,
2013-02-14 22:33:00,9.0,-2.0,29.96,NW,315,2.0,2.0,60,0.00,,,0.00,meteohub,2013-02-15 05:33:00,
2013-02-14 22:38:00,9.1,-1.8,29.96,NW,315,0.0,2.0,60,0.00,,,0.00,meteohub,2013-02-15 05:38:00,
2013-02-14 22:43:00,9.1,-1.7,29.96,SE,135,0.0,2.0,61,0.00,,,0.00,meteohub,2013-02-15 05:43:00,
2013-02-14 22:48:00,9.1,-1.7,29.95,SE,135,0.0,2.0,61,0.00,,,0.00,meteohub,2013-02-15 05:48:00,
2013-02-14 22:53:00,9.1,-1.7,29.95,SE,135,1.0,2.0,61,0.00,,,0.00,meteohub,2013-02-15 05:53:00,
2013-02-14 22:58:00,9.1,-1.7,29.96,NW,315,2.0,2.0,61,0.00,,,0.00,meteohub,2013-02-15 05:58:00,
2013-02-14 23:03:00,9.1,-1.7,29.95,West,270,1.0,2.0,61,0.00,,,0.00,meteohub,2013-02-15 06:03:00,
2013-02-14 23:08:00,9.1,-1.7,29.95,SE,135,1.0,2.0,61,0.00,,,0.00,meteohub,2013-02-15 06:08:00,
2013-02-14 23:13:00,9.0,-1.7,29.95,SE,135,2.0,2.0,61,0.00,,,0.00,meteohub,2013-02-15 06:13:00,
2013-02-14 23:18:00,9.1,-1.7,29.96,South,180,7.0,7.0,61,0.00,,,0.00,meteohub,2013-02-15 06:18:00,
2013-02-14 23:23:00,9.7,-1.5,29.95,SE,135,2.0,7.0,60,0.00,,,0.00,meteohub,2013-02-15 06:23:00,
2013-02-14 23:29:00,9.9,-1.3,29.95,East,90,2.0,7.0,60,0.00,,,0.00,meteohub,2013-02-15 06:29:00,
2013-02-14 23:34:00,10.0,-1.1,29.95,SE,135,4.0,7.0,60,0.00,,,0.00,meteohub,2013-02-15 06:34:00,
2013-02-14 23:39:00,10.2,-0.9,29.95,NW,315,2.0,4.0,60,0.00,,,0.00,meteohub,2013-02-15 06:39:00,
2013-02-14 23:44:00,10.2,-0.9,29.95,West,270,5.0,5.0,60,0.00,,,0.00,meteohub,2013-02-15 06:44:00,
2013-02-14 23:49:00,10.2,-0.9,29.95,West,270,3.0,4.0,60,0.00,,,0.00,meteohub,2013-02-15 06:49:00,
2013-02-14 23:54:00,10.2,-0.9,29.95,SE,135,1.0,5.0,60,0.00,,,0.00,meteohub,2013-02-15 06:54:00,
2013-02-14 23:59:00,10.2,-0.9,29.95,SE,135,1.0,5.0,60,0.00,,,0.00,meteohub,2013-02-15 06:59:00,